Time;durP1;ratioP1;P1;durP2;ratioP2;P2;SDS_P1;SDS_P2;PMS_P1;PMS_P2;Temp;Humidity;BMP_temperature;BMP_pressure;BME280_temperature;BME280_humidity;BME280_pressure;Samples;Min_cycle;Max_cycle;Signal;HPM_P1;HPM_P2
2023/04/24 00:00:42;;;;;;;20.38;11.25;;;;;;;;;;2024680;29;20496;-74
2023/04/24 00:02:03;;;;;;;22.13;13.03;;;;;;;;;;2022115;29;20093;-74
2023/04/24 00:03:24;;;;;;;18.73;13.40;;;;;;;;;;2031430;29;20066;-74
2023/04/24 00:04:45;;;;;;;20.05;12.43;;;;;;;;;;2032025;29;20032;-74
2023/04/24 00:06:07;;;;;;;19.25;11.32;;;;;;;;;;2031124;29;20046;-74
2023/04/24 00:07:29;;;;;;;23.90;13.88;;;;;;;;;;2021596;29;20040;-74
2023/04/24 00:08:49;;;;;;;18.38;12.00;;;;;;;;;;2029692;29;20038;-74
2023/04/24 00:10:11;;;;;;;17.98;12.27;;;;;;;;;;2024271;29;20036;-74
2023/04/24 00:11:31;;;;;;;18.80;12.50;;;;;;;;;;2027858;29;20035;-75
2023/04/24 00:12:52;;;;;;;20.27;13.05;;;;;;;;;;2018376;29;20412;-74
2023/04/24 00:14:13;;;;;;;16.90;12.38;;;;;;;;;;2029076;29;20040;-74
2023/04/24 00:15:34;;;;;;;18.70;12.50;;;;;;;;;;2023787;29;20055;-74
2023/04/24 00:16:55;;;;;;;20.27;12.63;;;;;;;;;;2025115;29;20029;-74
2023/04/24 00:18:16;;;;;;;18.05;12.35;;;;;;;;;;2029213;29;20432;-74
2023/04/24 00:19:37;;;;;;;23.90;14.00;;;;;;;;;;2023790;29;20032;-74
2023/04/24 00:20:58;;;;;;;22.30;14.80;;;;;;;;;;2025247;29;20036;-74
2023/04/24 00:22:20;;;;;;;19.23;13.00;;;;;;;;;;2033475;29;20071;-74
2023/04/24 00:23:41;;;;;;;26.17;15.27;;;;;;;;;;2024584;29;20044;-74
2023/04/24 00:25:03;;;;;;;21.30;15.82;;;;;;;;;;2024267;29;20396;-74
2023/04/24 00:26:23;;;;;;;21.23;13.25;;;;;;;;;;2029832;29;20024;-75
2023/04/24 00:27:44;;;;;;;21.88;14.40;;;;;;;;;;2024031;29;20381;-74
2023/04/24 00:29:05;;;;;;;25.75;15.35;;;;;;;;;;2029123;29;20047;-75
2023/04/24 00:30:26;;;;;;;25.38;14.13;;;;;;;;;;2032104;29;20024;-74
2023/04/24 00:31:47;;;;;;;25.75;14.55;;;;;;;;;;2030819;29;20492;-74
2023/04/24 00:33:08;;;;;;;27.02;17.00;;;;;;;;;;2033881;29;20401;-74
2023/04/24 00:34:30;;;;;;;25.08;15.77;;;;;;;;;;2031333;29;20032;-74
2023/04/24 00:35:50;;;;;;;30.30;21.58;;;;;;;;;;2031094;29;20032;-74
2023/04/24 00:37:11;;;;;;;31.48;16.48;;;;;;;;;;2032922;29;20034;-74
2023/04/24 00:38:32;;;;;;;24.63;16.70;;;;;;;;;;2031481;29;20032;-74
2023/04/24 00:39:53;;;;;;;29.50;18.70;;;;;;;;;;2030873;29;20483;-74
2023/04/24 00:41:14;;;;;;;28.40;15.85;;;;;;;;;;2028391;29;20059;-75
2023/04/24 00:42:35;;;;;;;24.20;16.83;;;;;;;;;;2034594;29;20050;-75
2023/04/24 00:43:56;;;;;;;25.15;15.40;;;;;;;;;;2032086;29;20035;-74
2023/04/24 00:45:17;;;;;;;31.42;16.17;;;;;;;;;;2030608;29;20483;-74
2023/04/24 00:46:38;;;;;;;25.95;16.10;;;;;;;;;;2030016;29;20035;-74
2023/04/24 00:48:00;;;;;;;25.70;15.43;;;;;;;;;;2022842;29;20084;-75
2023/04/24 00:49:21;;;;;;;27.02;15.57;;;;;;;;;;2029347;29;20032;-74
2023/04/24 00:50:42;;;;;;;30.15;17.67;;;;;;;;;;2031024;29;20036;-75
2023/04/24 00:52:07;;;;;;;35.60;23.20;;;;;;;;;;2024604;29;20365;-73
2023/04/24 00:53:28;;;;;;;26.73;18.63;;;;;;;;;;2029176;29;20051;-74
2023/04/24 00:54:49;;;;;;;34.95;20.38;;;;;;;;;;2031415;29;20400;-75
2023/04/24 00:56:10;;;;;;;32.00;19.42;;;;;;;;;;2030992;29;20036;-74
2023/04/24 00:57:31;;;;;;;35.17;21.33;;;;;;;;;;2034359;29;20095;-74
2023/04/24 00:58:52;;;;;;;29.95;17.52;;;;;;;;;;2023052;29;20034;-74
2023/04/24 01:00:14;;;;;;;32.72;17.65;;;;;;;;;;2023771;29;20036;-75
2023/04/24 01:01:35;;;;;;;36.65;20.80;;;;;;;;;;2020078;29;20025;-76
2023/04/24 01:02:57;;;;;;;29.80;17.05;;;;;;;;;;2014364;29;20457;-75
2023/04/24 01:04:18;;;;;;;31.67;16.98;;;;;;;;;;2008118;29;20427;-74
2023/04/24 01:05:39;;;;;;;39.55;23.65;;;;;;;;;;2016755;29;20059;-75
2023/04/24 01:07:00;;;;;;;35.28;19.02;;;;;;;;;;2015297;29;20040;-75
2023/04/24 01:08:23;;;;;;;34.97;18.75;;;;;;;;;;2023973;29;20036;-75
2023/04/24 01:09:47;;;;;;;37.40;22.58;;;;;;;;;;2007855;29;20414;-75
2023/04/24 01:11:07;;;;;;;37.88;18.52;;;;;;;;;;2017899;29;20043;-75
2023/04/24 01:12:28;;;;;;;36.78;19.20;;;;;;;;;;2025709;29;20095;-75
2023/04/24 01:13:49;;;;;;;41.22;24.83;;;;;;;;;;2016561;29;20516;-74
2023/04/24 01:15:10;;;;;;;38.05;21.30;;;;;;;;;;2023000;29;20052;-75
2023/04/24 01:16:31;;;;;;;32.22;18.95;;;;;;;;;;2013134;29;20057;-75
2023/04/24 01:17:52;;;;;;;33.00;18.65;;;;;;;;;;2008845;29;20038;-73
2023/04/24 01:19:14;;;;;;;37.97;22.23;;;;;;;;;;2021439;29;20404;-75
2023/04/24 01:20:36;;;;;;;43.53;19.60;;;;;;;;;;2023637;29;20036;-75
2023/04/24 01:21:58;;;;;;;41.05;20.92;;;;;;;;;;2025397;29;20552;-75
2023/04/24 01:23:19;;;;;;;35.50;20.42;;;;;;;;;;2023619;29;20049;-75
2023/04/24 01:24:40;;;;;;;43.35;21.83;;;;;;;;;;2014308;29;20040;-75
2023/04/24 01:26:01;;;;;;;33.13;19.33;;;;;;;;;;2020711;29;20040;-75
2023/04/24 01:27:22;;;;;;;35.40;19.08;;;;;;;;;;2019240;29;20993;-75
2023/04/24 01:28:43;;;;;;;33.50;19.65;;;;;;;;;;2007790;29;20042;-75
2023/04/24 01:30:05;;;;;;;39.95;21.88;;;;;;;;;;2013547;29;20037;-74
2023/04/24 01:31:26;;;;;;;39.42;24.35;;;;;;;;;;2020648;29;20028;-74
2023/04/24 01:32:47;;;;;;;42.65;19.40;;;;;;;;;;2010861;29;20680;-74
2023/04/24 01:49:58;;;;;;;37.33;20.52;;;;;;;;;;2016584;29;20401;-74
2023/04/24 01:51:19;;;;;;;35.72;20.00;;;;;;;;;;2022882;29;20033;-74
2023/04/24 01:52:40;;;;;;;38.10;20.50;;;;;;;;;;2014121;29;20505;-74
2023/04/24 01:54:01;;;;;;;40.75;22.98;;;;;;;;;;2012849;29;20426;-74
2023/04/24 01:55:22;;;;;;;37.60;20.88;;;;;;;;;;2020915;29;20025;-74
2023/04/24 01:56:43;;;;;;;44.20;21.25;;;;;;;;;;2022900;29;20044;-74
2023/04/24 01:58:04;;;;;;;40.78;20.08;;;;;;;;;;2022430;29;20028;-74
2023/04/24 01:59:25;;;;;;;44.28;22.80;;;;;;;;;;2023268;29;20096;-74
2023/04/24 02:00:45;;;;;;;40.65;20.83;;;;;;;;;;2023200;29;20025;-74
2023/04/24 02:02:06;;;;;;;42.90;22.45;;;;;;;;;;2015972;29;20026;-74
2023/04/24 02:03:27;;;;;;;46.38;24.42;;;;;;;;;;2020027;29;20342;-74
2023/04/24 02:04:48;;;;;;;50.45;29.13;;;;;;;;;;2023797;29;20143;-74
2023/04/24 02:06:09;;;;;;;52.80;27.45;;;;;;;;;;2027059;29;20515;-74
2023/04/24 02:07:30;;;;;;;40.78;22.23;;;;;;;;;;2022204;29;20424;-74
2023/04/24 02:08:51;;;;;;;47.58;29.02;;;;;;;;;;2023328;29;20044;-74
2023/04/24 02:10:12;;;;;;;50.97;29.88;;;;;;;;;;2023098;29;20029;-74
2023/04/24 02:11:33;;;;;;;52.28;28.92;;;;;;;;;;2027298;29;20032;-75
2023/04/24 02:12:54;;;;;;;44.03;23.73;;;;;;;;;;2023020;29;20036;-74
2023/04/24 02:14:14;;;;;;;53.13;29.30;;;;;;;;;;2023351;29;20032;-74
2023/04/24 02:15:35;;;;;;;53.20;29.80;;;;;;;;;;2013902;29;20033;-75
2023/04/24 02:16:56;;;;;;;54.60;28.92;;;;;;;;;;2018278;29;20029;-75
2023/04/24 02:18:17;;;;;;;51.72;28.80;;;;;;;;;;2023357;29;20080;-74
2023/04/24 02:19:38;;;;;;;51.53;26.05;;;;;;;;;;2015270;29;20401;-74
2023/04/24 02:21:00;;;;;;;44.90;23.85;;;;;;;;;;2023852;29;20088;-73
2023/04/24 02:22:20;;;;;;;50.88;24.58;;;;;;;;;;2016525;29;20557;-74
2023/04/24 02:23:41;;;;;;;48.25;24.17;;;;;;;;;;2022341;29;20044;-74
2023/04/24 02:25:02;;;;;;;56.20;28.92;;;;;;;;;;2024373;29;20079;-74
2023/04/24 02:26:23;;;;;;;49.50;28.15;;;;;;;;;;2023665;29;20052;-74
2023/04/24 02:27:44;;;;;;;52.70;33.53;;;;;;;;;;2014200;29;20029;-75
2023/04/24 02:29:05;;;;;;;43.67;25.38;;;;;;;;;;2014514;29;20037;-75
2023/04/24 02:30:26;;;;;;;46.13;25.20;;;;;;;;;;2022284;29;20047;-75
2023/04/24 02:31:47;;;;;;;52.45;25.10;;;;;;;;;;2029137;29;20460;-75
2023/04/24 02:33:07;;;;;;;49.97;25.27;;;;;;;;;;2016299;29;20048;-74
2023/04/24 02:34:28;;;;;;;45.17;24.92;;;;;;;;;;2022867;29;20037;-75
2023/04/24 02:35:49;;;;;;;48.30;25.60;;;;;;;;;;2024962;29;20092;-75
2023/04/24 02:37:10;;;;;;;46.47;23.85;;;;;;;;;;2025263;29;20039;-75
2023/04/24 02:38:31;;;;;;;52.90;30.45;;;;;;;;;;2024908;29;20067;-75
2023/04/24 02:39:52;;;;;;;46.47;25.08;;;;;;;;;;2024519;29;20436;-75
2023/04/24 02:41:13;;;;;;;50.90;26.52;;;;;;;;;;2028135;29;20032;-75
2023/04/24 02:42:34;;;;;;;54.95;27.40;;;;;;;;;;2023241;29;20029;-75
2023/04/24 02:43:55;;;;;;;42.00;24.95;;;;;;;;;;2017312;29;20045;-74
2023/04/24 02:45:16;;;;;;;49.63;29.15;;;;;;;;;;2020339;29;20476;-75
2023/04/24 02:46:37;;;;;;;47.53;27.23;;;;;;;;;;2029137;29;20040;-71
2023/04/24 02:47:57;;;;;;;42.17;24.50;;;;;;;;;;2008952;29;20037;-72
2023/04/24 02:49:18;;;;;;;45.03;23.67;;;;;;;;;;2014429;29;20442;-71
2023/04/24 02:50:39;;;;;;;44.35;24.15;;;;;;;;;;2014746;29;20044;-72
2023/04/24 02:52:00;;;;;;;41.75;20.83;;;;;;;;;;2019176;29;20117;-72
2023/04/24 02:53:21;;;;;;;47.03;24.05;;;;;;;;;;2015946;29;20045;-72
2023/04/24 02:54:42;;;;;;;43.05;23.50;;;;;;;;;;2013764;29;20041;-72
2023/04/24 02:56:03;;;;;;;39.20;21.75;;;;;;;;;;2024491;29;20037;-72
2023/04/24 02:57:24;;;;;;;37.55;22.92;;;;;;;;;;2023280;29;20043;-72
2023/04/24 02:58:45;;;;;;;48.35;24.58;;;;;;;;;;2024477;29;20059;-72
2023/04/24 03:00:07;;;;;;;38.35;22.92;;;;;;;;;;2023215;29;20040;-72
2023/04/24 03:01:27;;;;;;;42.38;22.60;;;;;;;;;;2028301;29;20036;-72
2023/04/24 03:02:49;;;;;;;45.50;27.50;;;;;;;;;;2015868;29;20113;-72
2023/04/24 03:04:10;;;;;;;43.15;23.13;;;;;;;;;;2007948;29;20041;-71
2023/04/24 03:05:31;;;;;;;48.03;25.83;;;;;;;;;;2019233;29;20021;-71
2023/04/24 03:06:54;;;;;;;50.35;30.98;;;;;;;;;;2013257;29;20029;-71
2023/04/24 03:08:15;;;;;;;40.05;23.15;;;;;;;;;;2016579;29;20745;-72
2023/04/24 03:09:36;;;;;;;41.72;23.77;;;;;;;;;;2022561;29;20032;-72
2023/04/24 03:10:57;;;;;;;46.88;23.98;;;;;;;;;;2025305;29;20081;-71
2023/04/24 03:12:18;;;;;;;40.80;23.77;;;;;;;;;;2024129;29;20037;-71
2023/04/24 03:13:38;;;;;;;43.30;24.88;;;;;;;;;;2024453;29;20044;-72
2023/04/24 03:14:59;;;;;;;41.78;21.67;;;;;;;;;;2012052;29;20037;-72
2023/04/24 03:16:20;;;;;;;46.08;23.17;;;;;;;;;;2018698;29;20064;-71
2023/04/24 03:17:41;;;;;;;49.42;25.77;;;;;;;;;;2005993;29;20034;-71
2023/04/24 03:19:02;;;;;;;39.25;22.10;;;;;;;;;;2018684;29;20092;-71
2023/04/24 03:20:23;;;;;;;42.28;23.85;;;;;;;;;;2023659;29;20388;-71
2023/04/24 03:21:44;;;;;;;44.50;24.60;;;;;;;;;;2011258;29;20096;-71
2023/04/24 03:23:05;;;;;;;45.60;26.77;;;;;;;;;;2016204;29;20077;-72
2023/04/24 03:24:27;;;;;;;43.95;22.35;;;;;;;;;;2015883;29;20426;-72
2023/04/24 03:25:48;;;;;;;42.90;21.33;;;;;;;;;;2015640;29;20029;-72
2023/04/24 03:27:09;;;;;;;46.42;24.38;;;;;;;;;;2014173;29;20517;-72
2023/04/24 03:28:30;;;;;;;44.83;23.60;;;;;;;;;;2022940;29;20047;-72
2023/04/24 03:29:55;;;;;;;45.05;22.20;;;;;;;;;;2015945;29;20033;-72
2023/04/24 03:31:16;;;;;;;40.28;21.13;;;;;;;;;;2022878;29;20569;-72
2023/04/24 03:32:39;;;;;;;50.00;27.93;;;;;;;;;;2016002;29;20060;-72
2023/04/24 03:33:59;;;;;;;44.78;24.75;;;;;;;;;;2016000;29;20354;-72
2023/04/24 03:35:21;;;;;;;39.58;21.67;;;;;;;;;;2020876;29;20032;-71
2023/04/24 03:36:42;;;;;;;43.75;23.52;;;;;;;;;;2026832;29;20063;-71
2023/04/24 03:38:04;;;;;;;48.47;25.58;;;;;;;;;;2024166;29;20036;-71
2023/04/24 03:39:25;;;;;;;40.42;23.85;;;;;;;;;;2016281;29;20756;-71
2023/04/24 03:40:46;;;;;;;40.95;22.83;;;;;;;;;;2021419;29;20040;-71
2023/04/24 03:42:08;;;;;;;42.83;26.23;;;;;;;;;;2016746;29;20029;-71
2023/04/24 03:43:29;;;;;;;39.83;23.95;;;;;;;;;;2021127;29;20445;-71
2023/04/24 03:44:50;;;;;;;40.47;22.67;;;;;;;;;;2023204;29;20040;-72
2023/04/24 03:46:10;;;;;;;33.25;19.60;;;;;;;;;;2022995;29;20035;-71
2023/04/24 03:47:31;;;;;;;40.25;22.30;;;;;;;;;;2023906;29;20032;-71
2023/04/24 03:48:52;;;;;;;37.45;21.65;;;;;;;;;;2024659;29;20037;-71
2023/04/24 03:50:13;;;;;;;47.90;25.13;;;;;;;;;;2023210;29;20130;-71
2023/04/24 03:51:34;;;;;;;41.45;24.02;;;;;;;;;;2028044;29;20416;-71
2023/04/24 03:52:55;;;;;;;40.80;23.38;;;;;;;;;;2007928;29;20030;-71
2023/04/24 03:54:16;;;;;;;37.42;20.05;;;;;;;;;;2015611;29;20029;-71
2023/04/24 03:55:37;;;;;;;39.40;22.88;;;;;;;;;;2022956;29;20029;-71
2023/04/24 03:56:58;;;;;;;43.08;23.25;;;;;;;;;;2011729;29;20140;-72
2023/04/24 03:58:19;;;;;;;45.72;24.63;;;;;;;;;;2014973;29;20391;-72
2023/04/24 03:59:40;;;;;;;34.97;20.30;;;;;;;;;;2020444;29;20056;-71
2023/04/24 04:01:00;;;;;;;37.10;21.92;;;;;;;;;;2024502;29;20029;-71
2023/04/24 04:02:21;;;;;;;40.42;21.67;;;;;;;;;;2023034;29;20354;-71
2023/04/24 04:03:42;;;;;;;38.38;20.50;;;;;;;;;;2024331;29;20059;-71
2023/04/24 04:05:03;;;;;;;40.97;23.40;;;;;;;;;;2023992;29;20100;-71
2023/04/24 04:06:24;;;;;;;37.03;20.33;;;;;;;;;;2026462;29;20471;-71
2023/04/24 04:07:45;;;;;;;39.30;21.92;;;;;;;;;;2016200;29;20028;-71
2023/04/24 04:09:07;;;;;;;38.17;20.25;;;;;;;;;;2008428;29;20033;-72
2023/04/24 04:10:27;;;;;;;40.58;20.23;;;;;;;;;;2019126;29;20073;-72
2023/04/24 04:11:48;;;;;;;38.60;23.30;;;;;;;;;;2023984;29;20455;-71
2023/04/24 04:13:09;;;;;;;36.17;23.38;;;;;;;;;;2024231;29;20036;-72
2023/04/24 04:14:30;;;;;;;40.00;20.88;;;;;;;;;;2024812;29;20052;-71
2023/04/24 04:15:51;;;;;;;32.05;18.75;;;;;;;;;;2024191;29;20071;-71
2023/04/24 04:17:12;;;;;;;34.85;20.77;;;;;;;;;;2013421;29;20037;-71
2023/04/24 04:18:33;;;;;;;41.65;22.35;;;;;;;;;;2021980;29;20081;-71
2023/04/24 04:19:54;;;;;;;34.10;19.35;;;;;;;;;;2014716;29;20387;-71
2023/04/24 04:21:15;;;;;;;35.78;20.13;;;;;;;;;;2024412;29;20036;-71
2023/04/24 04:22:36;;;;;;;39.15;20.50;;;;;;;;;;2023483;29;20037;-71
2023/04/24 04:23:57;;;;;;;33.13;19.27;;;;;;;;;;2023810;29;20060;-72
2023/04/24 04:25:19;;;;;;;36.63;20.58;;;;;;;;;;2015184;29;20525;-71
2023/04/24 04:26:40;;;;;;;35.22;20.73;;;;;;;;;;2024359;29;20479;-71
2023/04/24 04:28:01;;;;;;;38.20;21.33;;;;;;;;;;2022922;29;20080;-72
2023/04/24 04:29:23;;;;;;;34.45;19.40;;;;;;;;;;2016384;29;20101;-71
2023/04/24 04:30:45;;;;;;;35.80;20.75;;;;;;;;;;2012991;29;20037;-71
2023/04/24 04:32:06;;;;;;;32.28;19.35;;;;;;;;;;2020281;29;20112;-71
2023/04/24 04:33:27;;;;;;;33.15;18.52;;;;;;;;;;2014923;29;20159;-71
2023/04/24 04:34:49;;;;;;;40.85;19.00;;;;;;;;;;2020946;29;20063;-71
2023/04/24 04:36:10;;;;;;;33.67;17.95;;;;;;;;;;2017366;29;20036;-71
2023/04/24 04:37:31;;;;;;;40.38;27.58;;;;;;;;;;2020853;29;20028;-70
2023/04/24 04:38:52;;;;;;;39.45;25.92;;;;;;;;;;2023329;29;20090;-72
2023/04/24 04:40:13;;;;;;;32.50;18.67;;;;;;;;;;2023452;29;20040;-71
2023/04/24 04:41:37;;;;;;;38.88;18.95;;;;;;;;;;2024036;29;20104;-71
2023/04/24 04:42:58;;;;;;;30.25;18.13;;;;;;;;;;2018181;29;20033;-71
2023/04/24 04:44:19;;;;;;;30.50;18.05;;;;;;;;;;2023453;29;20485;-72
2023/04/24 04:45:41;;;;;;;35.45;20.63;;;;;;;;;;2022448;29;20032;-71
2023/04/24 04:47:05;;;;;;;29.95;17.58;;;;;;;;;;2013868;29;20041;-72
2023/04/24 04:48:27;;;;;;;32.47;17.92;;;;;;;;;;2022325;29;20048;-72
2023/04/24 04:49:48;;;;;;;36.03;18.88;;;;;;;;;;2022725;29;20397;-71
2023/04/24 04:51:08;;;;;;;36.28;22.20;;;;;;;;;;2018535;29;20036;-71
2023/04/24 04:52:29;;;;;;;33.30;20.55;;;;;;;;;;2020499;29;20032;-71
2023/04/24 04:53:50;;;;;;;33.30;18.05;;;;;;;;;;2023951;29;20136;-71
2023/04/24 04:55:13;;;;;;;35.90;21.65;;;;;;;;;;2024010;29;20134;-71
2023/04/24 04:56:33;;;;;;;38.72;23.00;;;;;;;;;;2016989;29;20091;-71
2023/04/24 04:57:55;;;;;;;40.10;22.65;;;;;;;;;;2012830;29;20033;-71
2023/04/24 04:59:16;;;;;;;34.90;20.25;;;;;;;;;;2016190;29;20033;-71
2023/04/24 05:00:37;;;;;;;36.13;19.35;;;;;;;;;;2014753;29;20033;-71
2023/04/24 05:01:58;;;;;;;34.17;17.85;;;;;;;;;;2018214;29;20040;-70
2023/04/24 05:03:19;;;;;;;36.53;22.48;;;;;;;;;;2024803;29;20051;-71
2023/04/24 05:04:40;;;;;;;31.15;17.83;;;;;;;;;;2024886;29;20484;-70
2023/04/24 05:06:01;;;;;;;32.97;18.75;;;;;;;;;;2018109;29;20120;-71
2023/04/24 05:07:22;;;;;;;27.00;17.70;;;;;;;;;;2021277;29;20056;-71
2023/04/24 05:08:43;;;;;;;35.97;18.92;;;;;;;;;;2031622;29;20032;-72
2023/04/24 05:10:04;;;;;;;31.13;18.15;;;;;;;;;;2028495;29;20040;-71
2023/04/24 05:11:25;;;;;;;31.45;17.80;;;;;;;;;;2017874;29;20064;-71
2023/04/24 05:12:46;;;;;;;30.02;16.73;;;;;;;;;;2021596;29;20029;-71
2023/04/24 05:14:07;;;;;;;28.95;17.23;;;;;;;;;;2022651;29;20381;-71
2023/04/24 05:15:28;;;;;;;31.83;18.23;;;;;;;;;;2022819;29;20040;-71
2023/04/24 05:16:49;;;;;;;31.63;19.52;;;;;;;;;;2020026;29;20151;-71
2023/04/24 05:18:10;;;;;;;27.80;16.67;;;;;;;;;;2024088;29;20060;-72
2023/04/24 05:19:33;;;;;;;29.42;16.70;;;;;;;;;;2016786;29;20033;-71
2023/04/24 05:20:53;;;;;;;30.83;17.52;;;;;;;;;;2014355;29;20041;-71
2023/04/24 05:22:14;;;;;;;24.20;14.88;;;;;;;;;;2021117;29;20046;-70
2023/04/24 05:23:35;;;;;;;28.73;16.52;;;;;;;;;;2023862;29;20039;-71
2023/04/24 05:24:57;;;;;;;29.25;15.20;;;;;;;;;;2022096;29;20052;-71
2023/04/24 05:26:17;;;;;;;33.88;16.70;;;;;;;;;;2025453;29;20040;-71
2023/04/24 05:27:39;;;;;;;29.65;15.68;;;;;;;;;;2022923;29;20440;-70
2023/04/24 05:29:00;;;;;;;25.50;15.95;;;;;;;;;;2023374;29;20408;-71
2023/04/24 05:30:20;;;;;;;30.42;17.30;;;;;;;;;;2020146;29;20040;-71
2023/04/24 05:31:41;;;;;;;26.73;15.95;;;;;;;;;;2027531;29;20044;-72
2023/04/24 05:33:02;;;;;;;27.55;15.90;;;;;;;;;;2016577;29;20097;-71
2023/04/24 05:34:23;;;;;;;25.48;14.88;;;;;;;;;;2019977;29;20468;-71
2023/04/24 05:35:46;;;;;;;27.23;15.20;;;;;;;;;;2023425;29;20044;-71
2023/04/24 05:37:09;;;;;;;28.05;15.77;;;;;;;;;;2022772;29;20096;-71
2023/04/24 05:38:30;;;;;;;28.70;15.15;;;;;;;;;;2022931;29;20057;-69
2023/04/24 05:39:51;;;;;;;24.05;14.27;;;;;;;;;;2023444;29;20035;-72
2023/04/24 05:41:12;;;;;;;27.90;16.00;;;;;;;;;;2022114;29;20444;-71
2023/04/24 05:42:33;;;;;;;30.23;15.07;;;;;;;;;;2023570;29;20439;-71
2023/04/24 05:43:54;;;;;;;24.33;14.10;;;;;;;;;;2016534;29;20048;-71
2023/04/24 05:45:16;;;;;;;24.38;14.55;;;;;;;;;;2020259;29;20040;-71
2023/04/24 05:46:37;;;;;;;25.25;14.90;;;;;;;;;;2026777;29;20091;-71
2023/04/24 05:47:58;;;;;;;22.15;13.15;;;;;;;;;;2016042;29;20029;-71
2023/04/24 05:49:19;;;;;;;18.52;11.05;;;;;;;;;;2015867;29;20049;-71
2023/04/24 05:50:40;;;;;;;18.27;11.20;;;;;;;;;;2022076;29;20025;-71
2023/04/24 05:52:01;;;;;;;19.10;11.20;;;;;;;;;;2013330;29;20029;-71
2023/04/24 05:53:21;;;;;;;17.92;11.45;;;;;;;;;;2015266;29;20041;-71
2023/04/24 05:54:42;;;;;;;20.75;11.10;;;;;;;;;;2020774;29;20033;-71
2023/04/24 05:56:03;;;;;;;18.95;10.98;;;;;;;;;;2023858;29;20033;-71
2023/04/24 05:57:24;;;;;;;20.67;10.45;;;;;;;;;;2022396;29;20108;-72
2023/04/24 05:58:46;;;;;;;14.52;9.27;;;;;;;;;;2014900;29;20021;-72
2023/04/24 06:00:08;;;;;;;13.98;9.20;;;;;;;;;;2021710;29;20057;-71
2023/04/24 06:01:29;;;;;;;13.77;9.02;;;;;;;;;;2020516;29;20037;-71
2023/04/24 06:02:51;;;;;;;11.57;8.65;;;;;;;;;;2017607;29;20052;-71
2023/04/24 06:04:13;;;;;;;12.85;8.85;;;;;;;;;;2028860;29;20357;-71
2023/04/24 06:05:34;;;;;;;14.70;9.38;;;;;;;;;;2020944;29;20489;-71
2023/04/24 06:06:55;;;;;;;17.38;9.70;;;;;;;;;;2020224;29;20048;-71
2023/04/24 06:08:16;;;;;;;13.25;8.90;;;;;;;;;;2024639;29;20041;-71
2023/04/24 06:09:37;;;;;;;13.15;7.95;;;;;;;;;;2023144;29;20036;-71
2023/04/24 06:10:58;;;;;;;12.00;7.70;;;;;;;;;;2007803;29;20542;-71
2023/04/24 06:12:19;;;;;;;13.23;8.30;;;;;;;;;;2013854;29;20426;-72
2023/04/24 06:13:40;;;;;;;13.05;8.52;;;;;;;;;;2014913;29;20085;-72
2023/04/24 06:15:02;;;;;;;11.48;6.82;;;;;;;;;;2020940;29;20528;-72
2023/04/24 06:16:23;;;;;;;12.55;7.70;;;;;;;;;;2015278;29;20536;-71
2023/04/24 06:17:44;;;;;;;12.55;7.68;;;;;;;;;;2015326;29;20041;-72
2023/04/24 06:19:05;;;;;;;10.93;7.35;;;;;;;;;;2018543;29;20457;-71
2023/04/24 06:20:26;;;;;;;14.10;6.95;;;;;;;;;;2020511;29;20048;-71
2023/04/24 06:21:47;;;;;;;11.27;7.18;;;;;;;;;;2019077;29;20168;-71
2023/04/24 06:23:08;;;;;;;14.68;7.80;;;;;;;;;;2021231;29;20024;-70
2023/04/24 06:24:29;;;;;;;14.25;7.82;;;;;;;;;;2023192;29;20041;-71
2023/04/24 06:25:49;;;;;;;11.32;7.18;;;;;;;;;;2024129;29;20040;-71
2023/04/24 06:27:10;;;;;;;15.15;8.38;;;;;;;;;;2025229;29;20048;-71
2023/04/24 06:28:31;;;;;;;13.75;7.95;;;;;;;;;;2024279;29;20037;-71
2023/04/24 06:29:54;;;;;;;11.63;7.30;;;;;;;;;;2023545;29;20479;-71
2023/04/24 06:31:15;;;;;;;10.07;7.25;;;;;;;;;;2021119;29;20044;-71
2023/04/24 06:32:36;;;;;;;12.85;7.68;;;;;;;;;;2023150;29;20047;-71
2023/04/24 06:33:57;;;;;;;10.23;7.43;;;;;;;;;;2024046;29;20044;-72
2023/04/24 06:35:18;;;;;;;8.32;6.85;;;;;;;;;;2021845;29;20036;-71
2023/04/24 06:36:39;;;;;;;15.18;7.78;;;;;;;;;;2024838;29;20029;-72
2023/04/24 06:38:00;;;;;;;11.18;7.72;;;;;;;;;;2021048;29;20044;-71
2023/04/24 06:39:21;;;;;;;11.77;7.70;;;;;;;;;;2024463;29;20052;-71
2023/04/24 06:40:41;;;;;;;14.15;7.70;;;;;;;;;;2019102;29;20374;-71
2023/04/24 06:42:02;;;;;;;14.63;8.60;;;;;;;;;;2023196;29;20033;-71
2023/04/24 06:43:23;;;;;;;11.93;7.60;;;;;;;;;;2023090;29;20036;-72
2023/04/24 06:44:45;;;;;;;17.00;8.60;;;;;;;;;;2024207;29;20032;-71
2023/04/24 06:46:05;;;;;;;11.68;8.27;;;;;;;;;;2025848;29;20064;-71
2023/04/24 06:47:26;;;;;;;15.90;8.95;;;;;;;;;;2022970;29;20043;-71
2023/04/24 06:48:47;;;;;;;13.57;8.40;;;;;;;;;;2022982;29;20354;-71
2023/04/24 06:50:08;;;;;;;13.65;8.75;;;;;;;;;;2013122;29;20045;-72
2023/04/24 06:51:30;;;;;;;15.43;9.25;;;;;;;;;;2026396;29;20028;-72
2023/04/24 06:52:51;;;;;;;15.18;10.35;;;;;;;;;;2015165;29;20040;-71
2023/04/24 06:54:12;;;;;;;17.95;9.82;;;;;;;;;;2011765;29;20068;-71
2023/04/24 06:55:33;;;;;;;20.53;10.80;;;;;;;;;;2017884;29;20029;-71
2023/04/24 06:56:55;;;;;;;16.23;10.85;;;;;;;;;;2018659;29;20041;-72
2023/04/24 06:58:15;;;;;;;17.75;10.85;;;;;;;;;;2020358;29;20037;-71
2023/04/24 06:59:37;;;;;;;19.98;12.20;;;;;;;;;;2023668;29;20033;-71
2023/04/24 07:00:57;;;;;;;16.88;11.80;;;;;;;;;;2022694;29;20484;-71
2023/04/24 07:02:18;;;;;;;20.17;13.63;;;;;;;;;;2022946;29;20080;-71
2023/04/24 07:03:39;;;;;;;16.88;11.43;;;;;;;;;;2023539;29;20048;-72
2023/04/24 07:05:01;;;;;;;18.98;11.68;;;;;;;;;;2014088;29;20101;-71
2023/04/24 07:06:24;;;;;;;18.42;12.60;;;;;;;;;;2022080;29;20032;-72
2023/04/24 07:07:45;;;;;;;19.13;12.18;;;;;;;;;;2016437;29;20033;-71
2023/04/24 07:09:06;;;;;;;19.90;11.75;;;;;;;;;;2008746;29;20591;-72
2023/04/24 07:10:28;;;;;;;18.80;12.18;;;;;;;;;;2018681;29;20025;-72
2023/04/24 07:11:49;;;;;;;19.08;12.50;;;;;;;;;;2020766;29;20516;-72
2023/04/24 07:13:10;;;;;;;16.30;11.17;;;;;;;;;;2024681;29;20052;-72
2023/04/24 07:14:31;;;;;;;16.95;11.43;;;;;;;;;;2015697;29;20452;-72
2023/04/24 07:15:53;;;;;;;17.92;12.02;;;;;;;;;;2022340;29;20508;-72
2023/04/24 07:17:14;;;;;;;;;;;;;;;;;;2023090;29;20068;-71
2023/04/24 07:18:36;;;;;;;22.23;12.80;;;;;;;;;;2024811;29;19907;-71
2023/04/24 07:19:57;;;;;;;24.20;14.15;;;;;;;;;;2015771;29;20030;-70
2023/04/24 07:21:18;;;;;;;24.67;14.18;;;;;;;;;;2026029;29;20037;-72
2023/04/24 07:22:38;;;;;;;26.67;14.57;;;;;;;;;;2023476;29;20036;-72
2023/04/24 07:24:00;;;;;;;25.60;14.90;;;;;;;;;;2024500;29;20057;-72
2023/04/24 07:25:20;;;;;;;33.22;15.90;;;;;;;;;;2016299;29;20028;-71
2023/04/24 07:26:41;;;;;;;25.92;15.35;;;;;;;;;;2021055;29;20044;-71
2023/04/24 07:28:03;;;;;;;28.58;15.10;;;;;;;;;;2022009;29;20250;-71
2023/04/24 07:29:24;;;;;;;29.05;15.63;;;;;;;;;;2023219;29;20040;-71
2023/04/24 07:30:45;;;;;;;25.92;14.38;;;;;;;;;;2023800;29;20147;-72
2023/04/24 07:32:07;;;;;;;25.75;15.32;;;;;;;;;;2022907;29;20479;-72
2023/04/24 07:33:28;;;;;;;38.40;15.95;;;;;;;;;;2023610;29;20416;-72
2023/04/24 07:34:49;;;;;;;34.42;16.92;;;;;;;;;;2016934;29;20041;-72
2023/04/24 07:36:15;;;;;;;25.98;16.35;;;;;;;;;;2017630;29;20099;-72
2023/04/24 07:37:36;;;;;;;25.80;15.18;;;;;;;;;;2021662;29;20111;-72
2023/04/24 07:38:57;;;;;;;29.95;16.20;;;;;;;;;;2024643;29;20052;-72
2023/04/24 07:40:18;;;;;;;27.55;14.68;;;;;;;;;;2022529;29;20051;-72
2023/04/24 07:41:39;;;;;;;25.80;14.13;;;;;;;;;;2028526;29;20036;-71
2023/04/24 07:43:00;;;;;;;27.17;14.73;;;;;;;;;;2024300;29;20048;-71
2023/04/24 07:44:21;;;;;;;29.02;15.73;;;;;;;;;;2023936;29;20044;-71
2023/04/24 07:45:41;;;;;;;26.95;15.68;;;;;;;;;;2023440;29;20460;-71
2023/04/24 07:47:03;;;;;;;27.48;14.70;;;;;;;;;;2023432;29;20051;-71
2023/04/24 07:48:25;;;;;;;28.33;14.85;;;;;;;;;;2024399;29;20043;-72
2023/04/24 07:49:46;;;;;;;28.02;13.95;;;;;;;;;;2016056;29;20517;-72
2023/04/24 07:51:10;;;;;;;27.63;13.68;;;;;;;;;;2020937;29;20032;-72
2023/04/24 07:52:30;;;;;;;24.60;13.43;;;;;;;;;;2023862;29;20036;-72
2023/04/24 07:53:51;;;;;;;24.48;14.30;;;;;;;;;;2024562;29;20044;-72
2023/04/24 07:55:12;;;;;;;28.67;14.50;;;;;;;;;;2015211;29;20298;-73
2023/04/24 07:56:34;;;;;;;26.05;14.95;;;;;;;;;;2022019;29;20028;-72
2023/04/24 07:57:55;;;;;;;25.58;14.25;;;;;;;;;;2023963;29;20033;-72
2023/04/24 07:59:16;;;;;;;25.17;13.48;;;;;;;;;;2014643;29;20171;-73
2023/04/24 08:00:37;;;;;;;24.80;13.35;;;;;;;;;;2019785;29;20441;-73
2023/04/24 08:01:57;;;;;;;27.60;15.32;;;;;;;;;;2021275;29;20036;-72
2023/04/24 08:03:19;;;;;;;27.25;14.05;;;;;;;;;;2025206;29;20037;-72
2023/04/24 08:04:40;;;;;;;23.08;12.75;;;;;;;;;;2023834;29;20501;-72
2023/04/24 08:06:01;;;;;;;23.38;14.10;;;;;;;;;;2024011;29;20040;-72
2023/04/24 08:07:23;;;;;;;29.52;14.38;;;;;;;;;;2015007;29;20033;-76
2023/04/24 08:08:44;;;;;;;21.33;13.45;;;;;;;;;;2009586;29;20034;-75